SAS81K EDDH-EKYT
Flight info
| Callsign | SAS81K |
|---|---|
| Flight time | N/A |
| Altitude | 29000 |
| Route | SOKWO1G/33 SOKWO T814 EXNEL M105 AMRAK DCT RADIS P615 AAL |
| Aircraft | A20N/M-SDE2E3FGHIRWXY/LB1 |
Departure
| Time | 2026-05-06 15:52 |
|---|---|
| Airport | Hamburg Helmut Schmidt Airport (EDDH) |
Arrival
| Time | N/A |
|---|---|
| Airport | Aalborg Airport (EKYT) |
| Time | Latitude | Longitude | Altitude | Speed | Heading |
|---|---|---|---|---|---|
| 2026-05-06 15:05 | 53.63283 | 10.00376 | 46 ft | 0 kts | 85° |
| 2026-05-06 15:43 | 53.63283 | 10.00370 | 46 ft | 3 kts | 85° |
| 2026-05-06 15:43 | 53.63282 | 10.00325 | 46 ft | 4 kts | 90° |
| 2026-05-06 15:43 | 53.63283 | 10.00280 | 45 ft | 4 kts | 103° |
| 2026-05-06 15:43 | 53.63293 | 10.00242 | 44 ft | 4 kts | 152° |
| 2026-05-06 15:44 | 53.63300 | 10.00237 | 44 ft | 0 kts | 176° |
| 2026-05-06 15:46 | 53.63267 | 10.00240 | 44 ft | 11 kts | 176° |
| 2026-05-06 15:46 | 53.63146 | 10.00255 | 43 ft | 21 kts | 175° |
| 2026-05-06 15:46 | 53.63007 | 10.00193 | 45 ft | 22 kts | 211° |
| 2026-05-06 15:47 | 53.62892 | 10.00072 | 46 ft | 16 kts | 215° |
| 2026-05-06 15:47 | 53.62845 | 9.99961 | 46 ft | 0 kts | 244° |
| 2026-05-06 15:50 | 53.62840 | 9.99944 | 47 ft | 5 kts | 244° |
| 2026-05-06 15:50 | 53.62817 | 9.99834 | 47 ft | 15 kts | 272° |
| 2026-05-06 15:51 | 53.62892 | 9.99722 | 47 ft | 0 kts | 332° |
| 2026-05-06 15:51 | 53.62900 | 9.99715 | 47 ft | 10 kts | 332° |
| 2026-05-06 15:51 | 53.63268 | 9.99398 | 46 ft | 105 kts | 333° |
| 2026-05-06 15:52 | 53.64129 | 9.98686 | 227 ft | 161 kts | 337° |
| 2026-05-06 15:52 | 53.65208 | 9.97775 | 1201 ft | 184 kts | 337° |
| 2026-05-06 15:52 | 53.66400 | 9.96745 | 2137 ft | 200 kts | 338° |
| 2026-05-06 15:52 | 53.67673 | 9.95638 | 2852 ft | 210 kts | 339° |
| 2026-05-06 15:53 | 53.69041 | 9.94788 | 3500 ft | 209 kts | 354° |
| 2026-05-06 15:53 | 53.70493 | 9.94647 | 4153 ft | 212 kts | 5° |
| 2026-05-06 15:53 | 53.71992 | 9.94684 | 4908 ft | 220 kts | 4° |
| 2026-05-06 15:53 | 53.73496 | 9.95010 | 6364 ft | 214 kts | 19° |
| 2026-05-06 15:54 | 53.74839 | 9.96094 | 7777 ft | 218 kts | 34° |
| 2026-05-06 15:54 | 53.76172 | 9.97571 | 8786 ft | 242 kts | 34° |
| 2026-05-06 15:54 | 53.77628 | 9.99194 | 9715 ft | 267 kts | 34° |
| 2026-05-06 15:54 | 53.79246 | 10.00983 | 10546 ft | 291 kts | 34° |
| 2026-05-06 15:55 | 53.81023 | 10.02938 | 11235 ft | 319 kts | 34° |
| 2026-05-06 15:55 | 53.82952 | 10.05048 | 11984 ft | 340 kts | 34° |
| 2026-05-06 15:55 | 53.84987 | 10.07275 | 12973 ft | 354 kts | 33° |
| 2026-05-06 15:55 | 53.87088 | 10.09543 | 14039 ft | 363 kts | 31° |
| 2026-05-06 15:56 | 53.89483 | 10.11038 | 14956 ft | 374 kts | 10° |
| 2026-05-06 15:56 | 53.92074 | 10.11080 | 16112 ft | 374 kts | 350° |
| 2026-05-06 15:56 | 53.94636 | 10.10123 | 17180 ft | 381 kts | 345° |
| 2026-05-06 15:56 | 53.97224 | 10.08975 | 18165 ft | 388 kts | 343° |
| 2026-05-06 15:57 | 53.99855 | 10.07783 | 19054 ft | 393 kts | 343° |
| 2026-05-06 15:57 | 54.02501 | 10.06608 | 20052 ft | 395 kts | 344° |
| 2026-05-06 15:57 | 54.05177 | 10.05445 | 21008 ft | 399 kts | 344° |
| 2026-05-06 15:57 | 54.07891 | 10.04281 | 21885 ft | 404 kts | 342° |
| 2026-05-06 15:58 | 54.10499 | 10.02500 | 22780 ft | 405 kts | 329° |
| 2026-05-06 15:58 | 54.12817 | 9.99771 | 23634 ft | 406 kts | 316° |
| 2026-05-06 15:58 | 54.14775 | 9.96300 | 24330 ft | 409 kts | 309° |
| 2026-05-06 15:58 | 54.16689 | 9.92646 | 25010 ft | 415 kts | 309° |
| 2026-05-06 15:59 | 54.18628 | 9.88952 | 25669 ft | 420 kts | 309° |
| 2026-05-06 15:59 | 54.20591 | 9.85212 | 26336 ft | 426 kts | 309° |
| 2026-05-06 15:59 | 54.22578 | 9.81422 | 26946 ft | 431 kts | 309° |
| 2026-05-06 15:59 | 54.24720 | 9.77769 | 27561 ft | 438 kts | 316° |
| 2026-05-06 16:00 | 54.27142 | 9.74545 | 28156 ft | 445 kts | 322° |
| 2026-05-06 16:00 | 54.29668 | 9.71422 | 28592 ft | 450 kts | 322° |
| 2026-05-06 16:00 | 54.32194 | 9.68268 | 28694 ft | 450 kts | 322° |
| 2026-05-06 16:00 | 54.34836 | 9.65377 | 28802 ft | 453 kts | 332° |
| 2026-05-06 16:01 | 54.37797 | 9.63491 | 28899 ft | 456 kts | 344° |
| 2026-05-06 16:01 | 54.40938 | 9.62748 | 28911 ft | 458 kts | 357° |
| 2026-05-06 16:01 | 54.44124 | 9.63185 | 28912 ft | 461 kts | 9° |
| 2026-05-06 16:01 | 54.47261 | 9.64323 | 28912 ft | 461 kts | 12° |
| 2026-05-06 16:02 | 54.53468 | 9.66796 | 28910 ft | 461 kts | 11° |
| 2026-05-06 16:02 | 54.59757 | 9.68944 | 28908 ft | 461 kts | 9° |
| 2026-05-06 16:03 | 54.66124 | 9.70960 | 28905 ft | 464 kts | 8° |
| 2026-05-06 16:03 | 54.72456 | 9.72594 | 28907 ft | 463 kts | 6° |
| 2026-05-06 16:04 | 54.78873 | 9.74169 | 28906 ft | 463 kts | 7° |
| 2026-05-06 16:04 | 54.85221 | 9.75443 | 28911 ft | 462 kts | 2° |
| 2026-05-06 16:05 | 54.91651 | 9.76314 | 28910 ft | 465 kts | 2° |
| 2026-05-06 16:05 | 54.98094 | 9.77204 | 28911 ft | 464 kts | 2° |
| 2026-05-06 16:06 | 55.04539 | 9.78092 | 28912 ft | 464 kts | 2° |
| 2026-05-06 16:06 | 55.10982 | 9.78980 | 28914 ft | 464 kts | 2° |
| 2026-05-06 16:07 | 55.17447 | 9.79876 | 28907 ft | 467 kts | 2° |
| 2026-05-06 16:07 | 55.23924 | 9.80774 | 28913 ft | 467 kts | 2° |
| 2026-05-06 16:08 | 55.30397 | 9.81675 | 28919 ft | 467 kts | 2° |
| 2026-05-06 16:08 | 55.36869 | 9.82579 | 28922 ft | 467 kts | 2° |
| 2026-05-06 16:09 | 55.43365 | 9.83492 | 28922 ft | 469 kts | 1° |
| 2026-05-06 16:09 | 55.49871 | 9.84406 | 28924 ft | 469 kts | 1° |
| 2026-05-06 16:10 | 55.56376 | 9.85323 | 28924 ft | 469 kts | 1° |
| 2026-05-06 16:10 | 55.62882 | 9.86244 | 28921 ft | 469 kts | 1° |
| 2026-05-06 16:11 | 55.68290 | 9.87013 | 28927 ft | 469 kts | 1° |
| 2026-05-06 16:11 | 55.74790 | 9.87939 | 28924 ft | 469 kts | 1° |
| 2026-05-06 16:12 | 55.81294 | 9.88867 | 28919 ft | 469 kts | 1° |
| 2026-05-06 16:12 | 55.87797 | 9.89799 | 28925 ft | 469 kts | 1° |
| 2026-05-06 16:13 | 55.94316 | 9.90738 | 28926 ft | 472 kts | 1° |
| 2026-05-06 16:13 | 56.00852 | 9.91681 | 28925 ft | 471 kts | 1° |
| 2026-05-06 16:14 | 56.07379 | 9.92628 | 28861 ft | 469 kts | 2° |
| 2026-05-06 16:14 | 56.10605 | 9.93385 | 28408 ft | 466 kts | 4° |
| 2026-05-06 16:14 | 56.13799 | 9.94127 | 27749 ft | 460 kts | 4° |
| 2026-05-06 16:15 | 56.16954 | 9.94849 | 27033 ft | 454 kts | 4° |
| 2026-05-06 16:15 | 56.20073 | 9.95590 | 26267 ft | 451 kts | 4° |
| 2026-05-06 16:15 | 56.23156 | 9.96347 | 25686 ft | 443 kts | 4° |
| 2026-05-06 16:15 | 56.26189 | 9.97108 | 25383 ft | 441 kts | 4° |
| 2026-05-06 16:16 | 56.29243 | 9.97877 | 25134 ft | 442 kts | 4° |
| 2026-05-06 16:16 | 56.32276 | 9.98648 | 24894 ft | 439 kts | 4° |
| 2026-05-06 16:16 | 56.35293 | 9.99418 | 24650 ft | 437 kts | 4° |
| 2026-05-06 16:16 | 56.38299 | 10.00187 | 24409 ft | 435 kts | 4° |
| 2026-05-06 16:17 | 56.41293 | 10.00954 | 24171 ft | 433 kts | 4° |
| 2026-05-06 16:17 | 56.44266 | 10.01717 | 23959 ft | 431 kts | 4° |
| 2026-05-06 16:17 | 56.47237 | 10.02483 | 23726 ft | 430 kts | 3° |
| 2026-05-06 16:17 | 56.50195 | 10.03243 | 23474 ft | 427 kts | 3° |
| 2026-05-06 16:18 | 56.53119 | 10.03996 | 22955 ft | 424 kts | 3° |
| 2026-05-06 16:18 | 56.56035 | 10.04746 | 22137 ft | 422 kts | 4° |
| 2026-05-06 16:18 | 56.58942 | 10.05493 | 21191 ft | 421 kts | 4° |
| 2026-05-06 16:18 | 56.61839 | 10.06241 | 20263 ft | 420 kts | 4° |
| 2026-05-06 16:19 | 56.64721 | 10.06988 | 19367 ft | 417 kts | 4° |
| 2026-05-06 16:19 | 56.67582 | 10.07731 | 18502 ft | 414 kts | 4° |
| 2026-05-06 16:19 | 56.70418 | 10.08466 | 17574 ft | 410 kts | 5° |
| 2026-05-06 16:19 | 56.73227 | 10.09195 | 16615 ft | 406 kts | 5° |
| 2026-05-06 16:20 | 56.76004 | 10.09915 | 15742 ft | 399 kts | 5° |
| 2026-05-06 16:20 | 56.78753 | 10.10627 | 14502 ft | 401 kts | 6° |
| 2026-05-06 16:20 | 56.81536 | 10.11346 | 13220 ft | 404 kts | 6° |
| 2026-05-06 16:20 | 56.84270 | 10.12057 | 12216 ft | 398 kts | 7° |
| 2026-05-06 16:21 | 56.87016 | 10.12778 | 11294 ft | 389 kts | 7° |
| 2026-05-06 16:21 | 56.89675 | 10.13476 | 10333 ft | 383 kts | 7° |
| 2026-05-06 16:21 | 56.92307 | 10.14167 | 9250 ft | 381 kts | 7° |
| 2026-05-06 16:21 | 56.94908 | 10.14853 | 8238 ft | 375 kts | 7° |
| 2026-05-06 16:22 | 56.97468 | 10.15529 | 7256 ft | 369 kts | 7° |
| 2026-05-06 16:22 | 56.99992 | 10.16194 | 6272 ft | 364 kts | 7° |
| 2026-05-06 16:22 | 57.02450 | 10.16844 | 5330 ft | 359 kts | 7° |
| 2026-05-06 16:22 | 57.04902 | 10.17463 | 4384 ft | 353 kts | 4° |
| 2026-05-06 16:23 | 57.07306 | 10.17058 | 3517 ft | 344 kts | 343° |
| 2026-05-06 16:23 | 57.09394 | 10.15092 | 2793 ft | 335 kts | 320° |
| 2026-05-06 16:23 | 57.10735 | 10.11814 | 2621 ft | 313 kts | 295° |
| 2026-05-06 16:23 | 57.11100 | 10.07984 | 2278 ft | 302 kts | 269° |
| 2026-05-06 16:24 | 57.10833 | 10.04214 | 1878 ft | 293 kts | 263° |
| 2026-05-06 16:24 | 57.10519 | 10.00607 | 1492 ft | 277 kts | 264° |
| 2026-05-06 16:24 | 57.10280 | 9.97489 | 1158 ft | 207 kts | 266° |
| 2026-05-06 16:24 | 57.10139 | 9.95214 | 882 ft | 158 kts | 266° |
| 2026-05-06 16:25 | 57.10021 | 9.93393 | 672 ft | 130 kts | 266° |
| 2026-05-06 16:25 | 57.09919 | 9.91853 | 514 ft | 117 kts | 265° |
| 2026-05-06 16:25 | 57.09814 | 9.90325 | 340 ft | 118 kts | 266° |
| 2026-05-06 16:25 | 57.09731 | 9.88839 | 200 ft | 114 kts | 265° |
| 2026-05-06 16:26 | 57.09635 | 9.87392 | 42 ft | 112 kts | 266° |
| 2026-05-06 16:26 | 57.09564 | 9.86147 | 20 ft | 79 kts | 261° |